Time;durP1;ratioP1;P1;durP2;ratioP2;P2;SDS_P1;SDS_P2;PMS_P1;PMS_P2;Temp;Humidity;BMP_temperature;BMP_pressure;BME280_temperature;BME280_humidity;BME280_pressure;Samples;Min_cycle;Max_cycle;Signal;HPM_P1;HPM_P2
2023/05/07 00:00:22;;;;;;;6.47;5.32;;;;;;;;;;5064455;28;20108;-69
2023/05/07 00:02:49;;;;;;;7.25;5.20;;;;;;;;;;5058733;28;20366;-67
2023/05/07 00:05:15;;;;;;;6.53;5.22;;;;;;;;;;5063801;28;20123;-67
2023/05/07 00:07:41;;;;;;;8.13;7.00;;;;;;;;;;5063419;28;20029;-67
2023/05/07 00:10:08;;;;;;;9.07;7.10;;;;;;;;;;5065123;28;20020;-68
2023/05/07 00:12:34;;;;;;;7.70;6.00;;;;;;;;;;5063958;28;20055;-66
2023/05/07 00:15:02;;;;;;;7.75;5.40;;;;;;;;;;5067287;28;20017;-68
2023/05/07 00:17:28;;;;;;;6.13;5.53;;;;;;;;;;5055667;28;20025;-71
2023/05/07 00:19:54;;;;;;;7.03;5.32;;;;;;;;;;5066292;28;20405;-67
2023/05/07 00:22:21;;;;;;;10.05;5.75;;;;;;;;;;5059313;28;20111;-70
2023/05/07 00:24:47;;;;;;;6.05;5.43;;;;;;;;;;5068151;28;20476;-69
2023/05/07 00:27:13;;;;;;;8.20;5.15;;;;;;;;;;5056531;28;20045;-68
2023/05/07 00:29:40;;;;;;;6.20;5.57;;;;;;;;;;5065358;28;20112;-67
2023/05/07 00:32:06;;;;;;;7.57;5.50;;;;;;;;;;5061869;28;20120;-67
2023/05/07 00:34:32;;;;;;;7.15;5.70;;;;;;;;;;5062501;28;20018;-68
2023/05/07 00:36:58;;;;;;;7.93;6.07;;;;;;;;;;5057712;28;20036;-68
2023/05/07 00:39:25;;;;;;;6.93;5.40;;;;;;;;;;5063521;28;20025;-68
2023/05/07 00:41:51;;;;;;;9.75;6.03;;;;;;;;;;5061800;28;20031;-67
2023/05/07 00:44:18;;;;;;;8.63;6.07;;;;;;;;;;5064433;28;20023;-67
2023/05/07 00:46:44;;;;;;;8.70;6.15;;;;;;;;;;5054147;28;20033;-67
2023/05/07 00:49:11;;;;;;;9.18;6.00;;;;;;;;;;5069255;28;20016;-67
2023/05/07 00:51:37;;;;;;;8.32;6.45;;;;;;;;;;5062941;28;20148;-67
2023/05/07 00:54:03;;;;;;;8.20;5.97;;;;;;;;;;5067172;28;20096;-68
2023/05/07 00:56:30;;;;;;;6.15;5.18;;;;;;;;;;5057122;28;20654;-67
2023/05/07 00:58:57;;;;;;;6.93;5.30;;;;;;;;;;5068839;28;20029;-67
2023/05/07 01:01:23;;;;;;;6.38;4.95;;;;;;;;;;5058865;28;20458;-67
2023/05/07 01:03:49;;;;;;;6.32;5.03;;;;;;;;;;5059676;28;20071;-67
2023/05/07 01:06:16;;;;;;;5.18;4.68;;;;;;;;;;5057378;28;20060;-67
2023/05/07 01:08:43;;;;;;;5.78;5.15;;;;;;;;;;5068218;28;20439;-68
2023/05/07 01:11:09;;;;;;;5.63;4.70;;;;;;;;;;5059932;28;20017;-67
2023/05/07 01:13:36;;;;;;;8.82;4.95;;;;;;;;;;5064921;28;20021;-69
2023/05/07 01:16:03;;;;;;;6.13;5.05;;;;;;;;;;5058559;28;20021;-67
2023/05/07 01:18:32;;;;;;;7.32;5.43;;;;;;;;;;5061304;28;20091;-68
2023/05/07 01:21:00;;;;;;;5.57;4.93;;;;;;;;;;5065892;28;20516;-67
2023/05/07 01:23:28;;;;;;;8.25;5.50;;;;;;;;;;5053944;28;20024;-67
2023/05/07 01:25:54;;;;;;;7.13;5.70;;;;;;;;;;5058651;28;20025;-69
2023/05/07 01:28:21;;;;;;;5.30;4.80;;;;;;;;;;5061119;28;20499;-68
2023/05/07 01:30:48;;;;;;;5.32;4.75;;;;;;;;;;5061124;28;20206;-67
2023/05/07 01:33:16;;;;;;;5.95;5.20;;;;;;;;;;5061144;28;20036;-69
2023/05/07 01:35:44;;;;;;;6.50;5.32;;;;;;;;;;5062295;28;20813;-67
2023/05/07 01:38:10;;;;;;;7.22;5.65;;;;;;;;;;5057598;28;20027;-69
2023/05/07 01:40:37;;;;;;;7.22;6.03;;;;;;;;;;5059026;28;20029;-68
2023/05/07 01:43:03;;;;;;;6.38;5.63;;;;;;;;;;5063535;28;20040;-69
2023/05/07 01:45:31;;;;;;;6.15;4.25;;;;;;;;;;5061975;28;20040;-67
2023/05/07 01:47:58;;;;;;;7.07;5.10;;;;;;;;;;5060804;28;20736;-68
2023/05/07 01:50:26;;;;;;;5.20;4.32;;;;;;;;;;5051557;28;20501;-68
2023/05/07 01:52:52;;;;;;;6.63;4.75;;;;;;;;;;5052598;28;20032;-67
2023/05/07 01:55:19;;;;;;;5.60;4.68;;;;;;;;;;5061049;28;20025;-68
2023/05/07 01:57:45;;;;;;;4.72;4.30;;;;;;;;;;5064826;28;20086;-67
2023/05/07 02:00:11;;;;;;;5.82;4.88;;;;;;;;;;5061913;28;20038;-68
2023/05/07 02:02:38;;;;;;;6.30;5.05;;;;;;;;;;5062781;28;20178;-69
2023/05/07 02:05:04;;;;;;;6.70;5.40;;;;;;;;;;5064370;28;20036;-68
2023/05/07 02:07:30;;;;;;;6.68;5.85;;;;;;;;;;5061676;28;20045;-69
2023/05/07 02:09:57;;;;;;;5.55;4.63;;;;;;;;;;5059981;28;20104;-68
2023/05/07 02:12:23;;;;;;;6.10;5.22;;;;;;;;;;5063061;28;20127;-69
2023/05/07 02:14:50;;;;;;;6.72;5.70;;;;;;;;;;5059949;28;20021;-67
2023/05/07 02:17:16;;;;;;;7.55;5.43;;;;;;;;;;5060258;28;20032;-67
2023/05/07 02:19:42;;;;;;;6.35;5.75;;;;;;;;;;5061564;28;20104;-68
2023/05/07 02:22:08;;;;;;;6.25;5.20;;;;;;;;;;5061972;28;20043;-68
2023/05/07 02:24:34;;;;;;;5.80;5.20;;;;;;;;;;5063444;28;20099;-68
2023/05/07 02:27:01;;;;;;;6.82;5.20;;;;;;;;;;5062373;28;20115;-68
2023/05/07 02:29:27;;;;;;;6.10;5.50;;;;;;;;;;5060464;28;20020;-67
2023/05/07 02:31:53;;;;;;;6.03;5.40;;;;;;;;;;5056568;28;20032;-72
2023/05/07 02:34:19;;;;;;;7.18;5.82;;;;;;;;;;5059996;28;20365;-68
2023/05/07 02:36:46;;;;;;;6.47;5.60;;;;;;;;;;5057294;28;20059;-67
2023/05/07 02:39:15;;;;;;;8.23;5.90;;;;;;;;;;5064256;28;20036;-67
2023/05/07 02:41:41;;;;;;;6.85;6.13;;;;;;;;;;5058430;28;20454;-67
2023/05/07 02:44:07;;;;;;;7.45;6.32;;;;;;;;;;5064439;28;20111;-69
2023/05/07 02:46:34;;;;;;;8.77;6.47;;;;;;;;;;5063326;28;20091;-67
2023/05/07 02:49:00;;;;;;;7.55;6.07;;;;;;;;;;5065009;28;20484;-67
2023/05/07 02:51:26;;;;;;;6.25;5.20;;;;;;;;;;5067231;28;20445;-67
2023/05/07 02:53:53;;;;;;;5.78;5.18;;;;;;;;;;5067629;28;20797;-68
2023/05/07 02:56:19;;;;;;;6.63;5.63;;;;;;;;;;5058945;28;20113;-68
2023/05/07 02:58:45;;;;;;;7.50;5.40;;;;;;;;;;5065818;28;20029;-68
2023/05/07 03:01:13;;;;;;;6.03;5.43;;;;;;;;;;5066547;28;20028;-67
2023/05/07 03:03:40;;;;;;;6.10;5.50;;;;;;;;;;5059673;28;20073;-68
2023/05/07 03:06:06;;;;;;;6.68;5.40;;;;;;;;;;5065817;28;20689;-67
2023/05/07 03:08:33;;;;;;;5.95;5.10;;;;;;;;;;5068555;28;20066;-68
2023/05/07 03:10:59;;;;;;;8.57;5.22;;;;;;;;;;5059100;28;20027;-67
2023/05/07 03:13:26;;;;;;;5.75;5.15;;;;;;;;;;5060706;28;20035;-67
2023/05/07 03:15:52;;;;;;;8.07;5.75;;;;;;;;;;5062898;28;20484;-67
2023/05/07 03:18:18;;;;;;;5.15;4.65;;;;;;;;;;5057619;28;20033;-67
2023/05/07 03:20:44;;;;;;;7.05;5.85;;;;;;;;;;5055592;28;20607;-67
2023/05/07 03:23:10;;;;;;;6.50;5.40;;;;;;;;;;5061661;28;20036;-68
2023/05/07 03:25:37;;;;;;;6.07;5.35;;;;;;;;;;5062508;28;20086;-67
2023/05/07 03:28:04;;;;;;;6.70;5.30;;;;;;;;;;5064551;28;20120;-68
2023/05/07 03:30:30;;;;;;;5.93;5.32;;;;;;;;;;5057761;28;20029;-68
2023/05/07 03:32:56;;;;;;;7.07;5.00;;;;;;;;;;5062382;28;20231;-67
2023/05/07 03:35:22;;;;;;;7.20;6.05;;;;;;;;;;5061124;28;20057;-68
2023/05/07 03:37:48;;;;;;;7.57;6.05;;;;;;;;;;5060893;28;20021;-68
2023/05/07 03:40:15;;;;;;;8.85;6.63;;;;;;;;;;5061643;28;20067;-68
2023/05/07 03:42:41;;;;;;;9.70;7.00;;;;;;;;;;5059326;28;20048;-67
2023/05/07 03:45:07;;;;;;;6.93;6.20;;;;;;;;;;5055232;28;20032;-71
2023/05/07 03:47:34;;;;;;;8.88;6.85;;;;;;;;;;5060167;28;20040;-68
2023/05/07 03:50:00;;;;;;;8.15;6.90;;;;;;;;;;5061175;28;20024;-68
2023/05/07 03:52:26;;;;;;;7.97;6.90;;;;;;;;;;5061312;28;20016;-67
2023/05/07 03:54:53;;;;;;;9.55;6.60;;;;;;;;;;5056189;28;20099;-67
2023/05/07 03:57:20;;;;;;;9.18;5.93;;;;;;;;;;5052488;28;20032;-68
2023/05/07 03:59:46;;;;;;;7.80;5.70;;;;;;;;;;5061612;28;20044;-68
2023/05/07 04:02:12;;;;;;;8.65;5.75;;;;;;;;;;5059427;28;20123;-74
2023/05/07 04:04:38;;;;;;;5.60;5.10;;;;;;;;;;5061761;28;20131;-73
2023/05/07 04:07:04;;;;;;;10.45;5.95;;;;;;;;;;5057442;28;20043;-67
2023/05/07 04:09:31;;;;;;;8.75;5.50;;;;;;;;;;5069910;28;20037;-68
2023/05/07 04:11:57;;;;;;;7.30;5.30;;;;;;;;;;5060810;28;20485;-67
2023/05/07 04:14:23;;;;;;;7.85;5.22;;;;;;;;;;5061462;28;20029;-67
2023/05/07 04:16:49;;;;;;;6.68;5.40;;;;;;;;;;5061786;28;20509;-68
2023/05/07 04:19:15;;;;;;;6.72;5.30;;;;;;;;;;5061374;28;20111;-69
2023/05/07 04:21:42;;;;;;;8.23;4.93;;;;;;;;;;5054515;28;20031;-68
2023/05/07 04:24:08;;;;;;;5.60;5.07;;;;;;;;;;5056599;28;20060;-67
2023/05/07 04:26:34;;;;;;;8.77;5.93;;;;;;;;;;5053785;28;20028;-67
2023/05/07 04:29:00;;;;;;;6.60;5.90;;;;;;;;;;5061530;28;20024;-68
2023/05/07 04:31:26;;;;;;;9.13;5.97;;;;;;;;;;5053514;28;20009;-68
2023/05/07 04:33:53;;;;;;;8.05;6.30;;;;;;;;;;5062387;28;20024;-67
2023/05/07 04:36:19;;;;;;;10.63;6.13;;;;;;;;;;5059184;28;20169;-67
2023/05/07 04:38:45;;;;;;;7.60;6.32;;;;;;;;;;5063391;28;20104;-71
2023/05/07 04:41:14;;;;;;;7.55;6.20;;;;;;;;;;5059362;28;20025;-68
2023/05/07 04:43:41;;;;;;;8.70;5.97;;;;;;;;;;5061470;28;20706;-68
2023/05/07 04:46:07;;;;;;;8.50;6.30;;;;;;;;;;5060754;28;20086;-67
2023/05/07 04:48:33;;;;;;;7.85;7.00;;;;;;;;;;5063204;28;20050;-68
2023/05/07 04:51:00;;;;;;;10.05;6.72;;;;;;;;;;5059961;28;20096;-67
2023/05/07 04:53:26;;;;;;;8.05;6.43;;;;;;;;;;5060881;28;20035;-68
2023/05/07 04:55:56;;;;;;;7.18;6.47;;;;;;;;;;5059403;28;20122;-67
2023/05/07 04:58:22;;;;;;;7.97;6.57;;;;;;;;;;5054402;28;20108;-68
2023/05/07 05:00:49;;;;;;;10.20;6.85;;;;;;;;;;5057290;28;20063;-67
2023/05/07 05:03:15;;;;;;;10.70;6.75;;;;;;;;;;5053494;28;20633;-67
2023/05/07 05:05:41;;;;;;;6.97;6.28;;;;;;;;;;5055785;28;20127;-67
2023/05/07 05:08:07;;;;;;;10.27;6.75;;;;;;;;;;5056815;28;20864;-68
2023/05/07 05:10:34;;;;;;;8.93;6.68;;;;;;;;;;5059627;28;20027;-68
2023/05/07 05:13:00;;;;;;;7.22;6.20;;;;;;;;;;5057430;28;20028;-67
2023/05/07 05:15:26;;;;;;;6.38;5.68;;;;;;;;;;5061432;28;20666;-68
2023/05/07 05:17:52;;;;;;;9.18;5.72;;;;;;;;;;5063103;28;20058;-69
2023/05/07 05:20:18;;;;;;;9.85;6.32;;;;;;;;;;5059809;28;20023;-69
2023/05/07 05:22:45;;;;;;;13.63;6.28;;;;;;;;;;5058453;28;20048;-69
2023/05/07 05:25:11;;;;;;;10.52;7.05;;;;;;;;;;5061557;28;20252;-69
2023/05/07 05:27:37;;;;;;;9.88;7.15;;;;;;;;;;5059749;28;20029;-68
2023/05/07 05:30:05;;;;;;;10.73;8.10;;;;;;;;;;5060710;28;20098;-67
2023/05/07 05:32:31;;;;;;;10.23;7.60;;;;;;;;;;5059353;28;20591;-69
2023/05/07 05:34:57;;;;;;;9.05;7.13;;;;;;;;;;5059510;28;20112;-69
2023/05/07 05:37:23;;;;;;;9.00;7.07;;;;;;;;;;5061102;28;20056;-68
2023/05/07 05:39:49;;;;;;;7.55;6.50;;;;;;;;;;5062995;28;20112;-68
2023/05/07 05:42:16;;;;;;;7.15;6.45;;;;;;;;;;5066485;28;20515;-67
2023/05/07 05:44:42;;;;;;;9.77;7.20;;;;;;;;;;5061268;28;20024;-68
2023/05/07 05:47:08;;;;;;;8.63;7.43;;;;;;;;;;5063533;28;20043;-68
2023/05/07 05:49:34;;;;;;;8.20;7.35;;;;;;;;;;5068087;28;20108;-72
2023/05/07 05:52:01;;;;;;;8.93;7.60;;;;;;;;;;5061859;28;20028;-68
2023/05/07 05:54:27;;;;;;;9.15;7.68;;;;;;;;;;5067516;28;20107;-68
2023/05/07 05:56:53;;;;;;;9.82;8.02;;;;;;;;;;5056297;28;20017;-74
2023/05/07 05:59:19;;;;;;;13.45;7.18;;;;;;;;;;5066921;28;20500;-68
2023/05/07 06:01:46;;;;;;;8.77;7.85;;;;;;;;;;5058272;28;20032;-68
2023/05/07 06:04:12;;;;;;;10.32;8.15;;;;;;;;;;5064252;28;20396;-72
2023/05/07 06:06:38;;;;;;;10.43;7.40;;;;;;;;;;5059029;28;20074;-68
2023/05/07 06:09:04;;;;;;;8.40;7.57;;;;;;;;;;5068403;28;20027;-68
2023/05/07 06:11:32;;;;;;;9.48;7.80;;;;;;;;;;5064041;28;20009;-69
2023/05/07 06:13:58;;;;;;;8.70;7.80;;;;;;;;;;5063734;28;20021;-73
2023/05/07 06:16:25;;;;;;;8.43;6.88;;;;;;;;;;5067632;28;20142;-69
2023/05/07 06:18:51;;;;;;;7.65;6.85;;;;;;;;;;5058629;28;20111;-67
2023/05/07 06:21:17;;;;;;;7.97;7.05;;;;;;;;;;5063296;28;20054;-72
2023/05/07 06:23:44;;;;;;;8.70;7.80;;;;;;;;;;5065247;28;20104;-67
2023/05/07 06:26:10;;;;;;;11.23;7.78;;;;;;;;;;5060909;28;20066;-68
2023/05/07 06:28:36;;;;;;;8.10;6.68;;;;;;;;;;5063201;28;20113;-68
2023/05/07 06:31:20;;;;;;;7.85;6.63;;;;;;;;;;5067072;28;20536;-68
2023/05/07 06:33:46;;;;;;;8.02;7.00;;;;;;;;;;5063270;28;20549;-68
2023/05/07 06:36:13;;;;;;;6.95;6.25;;;;;;;;;;5063464;28;20437;-68
2023/05/07 06:38:39;;;;;;;7.00;6.30;;;;;;;;;;5066868;28;20500;-67
2023/05/07 06:41:06;;;;;;;6.85;5.70;;;;;;;;;;5055148;28;20025;-68
2023/05/07 06:43:32;;;;;;;7.40;6.70;;;;;;;;;;5064105;28;20244;-68
2023/05/07 06:45:58;;;;;;;13.55;8.30;;;;;;;;;;5057932;28;20624;-68
2023/05/07 06:48:25;;;;;;;12.82;9.65;;;;;;;;;;5068135;28;20189;-69
2023/05/07 06:50:51;;;;;;;10.02;8.75;;;;;;;;;;5064781;28;20096;-69
2023/05/07 06:53:17;;;;;;;9.45;7.85;;;;;;;;;;5060551;28;20039;-69
2023/05/07 06:55:43;;;;;;;10.95;8.30;;;;;;;;;;5064279;28;20109;-68
2023/05/07 06:58:09;;;;;;;9.93;8.13;;;;;;;;;;5065706;28;20148;-68
2023/05/07 07:00:36;;;;;;;12.25;9.00;;;;;;;;;;5063004;28;20095;-68
2023/05/07 07:03:02;;;;;;;9.25;8.20;;;;;;;;;;5057304;28;20057;-68
2023/05/07 07:05:28;;;;;;;7.80;7.00;;;;;;;;;;5065220;28;20072;-68
2023/05/07 07:07:54;;;;;;;10.43;7.15;;;;;;;;;;5065117;28;20044;-68
2023/05/07 07:10:21;;;;;;;8.45;7.10;;;;;;;;;;5063219;28;20029;-67
2023/05/07 07:12:47;;;;;;;8.63;7.32;;;;;;;;;;5056958;28;20030;-69
2023/05/07 07:15:14;;;;;;;7.40;6.60;;;;;;;;;;5062495;28;20385;-68
2023/05/07 07:17:40;;;;;;;8.23;6.75;;;;;;;;;;5056843;28;20076;-67
2023/05/07 07:20:06;;;;;;;9.80;7.32;;;;;;;;;;5059968;28;20124;-68
2023/05/07 07:22:32;;;;;;;11.20;6.97;;;;;;;;;;5061529;28;20039;-68
2023/05/07 07:24:59;;;;;;;9.15;7.25;;;;;;;;;;5064582;28;20013;-68
2023/05/07 07:27:25;;;;;;;10.00;8.00;;;;;;;;;;5053978;28;20652;-67
2023/05/07 07:29:52;;;;;;;6.82;6.13;;;;;;;;;;5066854;28;20036;-71
2023/05/07 07:32:18;;;;;;;19.05;11.32;;;;;;;;;;5057231;28;20021;-67
2023/05/07 07:34:44;;;;;;;16.10;10.60;;;;;;;;;;5070729;28;20090;-68
2023/05/07 07:37:10;;;;;;;11.27;6.85;;;;;;;;;;5057219;28;20025;-68
2023/05/07 07:39:37;;;;;;;6.38;5.70;;;;;;;;;;5063817;28;20100;-68
2023/05/07 07:42:03;;;;;;;6.85;6.15;;;;;;;;;;5065432;28;20040;-68
2023/05/07 07:44:30;;;;;;;9.40;7.25;;;;;;;;;;5063180;28;20021;-70
2023/05/07 07:46:56;;;;;;;6.95;6.25;;;;;;;;;;5064015;28;20040;-68
2023/05/07 07:49:22;;;;;;;9.43;6.30;;;;;;;;;;5069806;28;20028;-68
2023/05/07 07:51:48;;;;;;;14.07;9.07;;;;;;;;;;5065529;28;20077;-68
2023/05/07 07:54:14;;;;;;;10.95;6.60;;;;;;;;;;5068365;28;20112;-69
2023/05/07 07:56:40;;;;;;;8.00;6.85;;;;;;;;;;5062894;28;20140;-68
2023/05/07 07:59:07;;;;;;;8.55;6.30;;;;;;;;;;5070942;28;20029;-67
2023/05/07 08:01:33;;;;;;;7.70;6.90;;;;;;;;;;5064070;28;20104;-70
2023/05/07 08:03:59;;;;;;;7.72;6.53;;;;;;;;;;5065310;28;20625;-67
2023/05/07 08:06:26;;;;;;;6.05;5.45;;;;;;;;;;5057800;28;20067;-67
2023/05/07 08:08:52;;;;;;;6.75;5.90;;;;;;;;;;5069878;28;20497;-67
2023/05/07 08:11:19;;;;;;;8.15;7.35;;;;;;;;;;5063274;28;20021;-67
2023/05/07 08:13:46;;;;;;;7.55;6.85;;;;;;;;;;5065980;28;20036;-67
2023/05/07 08:16:12;;;;;;;9.18;6.97;;;;;;;;;;5064071;28;20101;-67
2023/05/07 08:18:39;;;;;;;6.35;5.60;;;;;;;;;;5064472;28;20070;-70
2023/05/07 08:21:05;;;;;;;6.28;5.68;;;;;;;;;;5067188;28;20096;-68
2023/05/07 08:23:31;;;;;;;6.50;5.90;;;;;;;;;;5067819;28;20107;-67
2023/05/07 08:25:58;;;;;;;9.77;8.77;;;;;;;;;;5069096;28;20021;-67
2023/05/07 08:28:24;;;;;;;9.57;8.60;;;;;;;;;;5066289;28;20024;-69
2023/05/07 08:30:51;;;;;;;9.15;8.27;;;;;;;;;;5065795;28;20083;-70
2023/05/07 08:33:17;;;;;;;6.95;6.20;;;;;;;;;;5064679;28;20037;-68
2023/05/07 08:35:43;;;;;;;7.50;6.32;;;;;;;;;;5060688;28;20025;-69
2023/05/07 08:38:09;;;;;;;7.93;7.13;;;;;;;;;;5067143;28;20012;-67
2023/05/07 08:40:40;;;;;;;6.93;6.00;;;;;;;;;;5059448;28;20027;-67
2023/05/07 08:43:07;;;;;;;6.68;5.82;;;;;;;;;;5067952;28;20103;-69
2023/05/07 08:45:33;;;;;;;8.57;7.13;;;;;;;;;;5066829;28;20107;-67
2023/05/07 08:48:02;;;;;;;7.70;6.45;;;;;;;;;;5067887;28;20402;-67
2023/05/07 08:50:28;;;;;;;9.35;8.18;;;;;;;;;;5066540;28;20032;-69
2023/05/07 08:52:56;;;;;;;7.13;6.43;;;;;;;;;;5064038;28;20058;-69
2023/05/07 08:55:23;;;;;;;6.03;5.43;;;;;;;;;;5067908;28;20013;-68
2023/05/07 08:57:50;;;;;;;5.65;5.07;;;;;;;;;;5067383;28;20040;-69
2023/05/07 09:00:16;;;;;;;5.93;4.80;;;;;;;;;;5064436;28;20021;-69
2023/05/07 09:02:42;;;;;;;6.57;5.25;;;;;;;;;;5067988;28;20125;-69
2023/05/07 09:05:09;;;;;;;6.00;5.18;;;;;;;;;;5063923;28;20560;-69
2023/05/07 09:07:35;;;;;;;6.18;5.30;;;;;;;;;;5062190;28;20052;-69
2023/05/07 09:10:04;;;;;;;6.03;5.43;;;;;;;;;;5068939;28;20073;-69
2023/05/07 09:12:31;;;;;;;12.60;7.80;;;;;;;;;;5065309;28;20052;-68
2023/05/07 09:14:57;;;;;;;6.85;5.57;;;;;;;;;;5069929;28;20099;-69
2023/05/07 09:17:23;;;;;;;11.23;7.28;;;;;;;;;;5067315;28;20051;-69
2023/05/07 09:19:49;;;;;;;7.80;6.50;;;;;;;;;;5068508;28;20013;-68
2023/05/07 09:22:16;;;;;;;7.80;5.60;;;;;;;;;;5062109;28;20024;-69
2023/05/07 09:24:47;;;;;;;6.95;4.90;;;;;;;;;;5062679;28;20053;-69
2023/05/07 09:27:13;;;;;;;;;;;;;;;;;;5064145;28;20032;-70
2023/05/07 09:29:39;;;;;;;9.85;6.93;;;;;;;;;;5068210;28;20352;-69
2023/05/07 09:32:06;;;;;;;8.27;6.10;;;;;;;;;;5062400;28;20048;-69
2023/05/07 09:34:32;;;;;;;11.65;8.45;;;;;;;;;;5069741;28;20589;-69
2023/05/07 09:37:02;;;;;;;6.80;6.03;;;;;;;;;;5060338;28;20021;-69
2023/05/07 09:39:48;;;;;;;7.18;5.22;;;;;;;;;;5067102;28;20120;-69
2023/05/07 09:42:17;;;;;;;5.82;5.05;;;;;;;;;;5064519;28;20372;-69
2023/05/07 09:44:47;;;;;;;6.15;5.03;;;;;;;;;;5066643;28;20031;-70
2023/05/07 09:47:16;;;;;;;5.60;5.03;;;;;;;;;;5067658;28;20082;-69
2023/05/07 09:49:43;;;;;;;7.18;5.40;;;;;;;;;;5067453;28;20111;-69
2023/05/07 09:52:10;;;;;;;6.28;5.10;;;;;;;;;;5064543;28;20027;-69
2023/05/07 09:54:42;;;;;;;6.35;5.65;;;;;;;;;;5066621;28;20029;-69
2023/05/07 09:57:09;;;;;;;6.50;5.50;;;;;;;;;;5063198;28;20411;-69
2023/05/07 09:59:37;;;;;;;6.63;5.70;;;;;;;;;;5066166;28;20111;-69
2023/05/07 10:02:04;;;;;;;5.28;4.78;;;;;;;;;;5063947;28;20098;-69
2023/05/07 10:04:32;;;;;;;5.57;4.80;;;;;;;;;;5065225;28;20048;-69
2023/05/07 10:06:59;;;;;;;15.30;13.00;;;;;;;;;;5066661;28;20024;-71
2023/05/07 10:09:26;;;;;;;13.25;11.85;;;;;;;;;;5065682;28;20027;-70
2023/05/07 10:11:53;;;;;;;7.40;6.53;;;;;;;;;;5064401;28;20024;-69
2023/05/07 10:14:21;;;;;;;6.75;5.22;;;;;;;;;;5063206;28;20554;-69
2023/05/07 10:16:48;;;;;;;6.00;4.78;;;;;;;;;;5064931;28;20017;-68
2023/05/07 10:19:15;;;;;;;5.55;4.95;;;;;;;;;;5064676;28;20369;-69
2023/05/07 10:21:45;;;;;;;6.25;4.80;;;;;;;;;;5066406;28;20508;-69
2023/05/07 10:24:16;;;;;;;5.25;4.75;;;;;;;;;;5063255;28;20036;-69
2023/05/07 10:26:44;;;;;;;6.43;5.15;;;;;;;;;;5062829;28;20502;-69
2023/05/07 10:29:16;;;;;;;5.93;5.32;;;;;;;;;;5068608;28;20020;-70
2023/05/07 10:31:51;;;;;;;5.82;5.20;;;;;;;;;;5058534;28;20044;-69
2023/05/07 10:34:20;;;;;;;5.50;4.72;;;;;;;;;;5063993;28;20078;-69
2023/05/07 10:36:46;;;;;;;5.78;5.28;;;;;;;;;;5061739;28;20052;-70
2023/05/07 10:39:13;;;;;;;9.98;5.40;;;;;;;;;;5067906;28;20036;-73
2023/05/07 10:41:40;;;;;;;6.32;5.45;;;;;;;;;;5063227;28;20033;-69
2023/05/07 10:44:06;;;;;;;6.20;5.60;;;;;;;;;;5067561;28;20162;-72
2023/05/07 10:46:35;;;;;;;6.00;5.40;;;;;;;;;;5061560;28;20535;-73
2023/05/07 10:49:05;;;;;;;5.97;5.05;;;;;;;;;;5059632;28;20035;-70
2023/05/07 10:51:35;;;;;;;6.68;5.93;;;;;;;;;;5062145;28;20030;-69
2023/05/07 10:54:10;;;;;;;6.07;5.32;;;;;;;;;;5063759;28;20027;-69
2023/05/07 10:56:41;;;;;;;5.68;5.03;;;;;;;;;;5061825;28;20032;-69
2023/05/07 10:59:31;;;;;;;6.32;5.35;;;;;;;;;;5063937;28;20024;-69
2023/05/07 11:01:59;;;;;;;5.78;5.13;;;;;;;;;;5064049;28;20025;-71
2023/05/07 11:04:29;;;;;;;5.72;5.22;;;;;;;;;;5061340;28;20543;-68
2023/05/07 11:07:08;;;;;;;6.30;5.70;;;;;;;;;;5060344;28;20041;-73
2023/05/07 11:09:53;;;;;;;6.53;5.40;;;;;;;;;;5065654;28;20029;-70
2023/05/07 11:12:37;;;;;;;6.15;5.22;;;;;;;;;;5067491;28;20434;-69
2023/05/07 11:15:06;;;;;;;6.32;5.65;;;;;;;;;;5071334;28;20024;-70
2023/05/07 11:17:34;;;;;;;6.00;5.40;;;;;;;;;;5068773;28;20123;-69
2023/05/07 11:20:01;;;;;;;7.28;5.93;;;;;;;;;;5071927;28;20021;-70
2023/05/07 11:22:35;;;;;;;6.00;5.40;;;;;;;;;;5065331;28;20155;-69
2023/05/07 11:25:02;;;;;;;5.50;5.00;;;;;;;;;;5070421;28;20044;-69
2023/05/07 11:27:29;;;;;;;6.60;5.47;;;;;;;;;;5068209;28;20033;-69
2023/05/07 11:29:55;;;;;;;7.40;6.50;;;;;;;;;;5069357;28;20017;-72
2023/05/07 11:32:25;;;;;;;7.18;5.65;;;;;;;;;;5060631;28;20451;-69
2023/05/07 11:34:54;;;;;;;7.60;5.78;;;;;;;;;;5072301;28;20101;-69
2023/05/07 11:37:21;;;;;;;7.75;6.45;;;;;;;;;;5062618;28;20016;-72
2023/05/07 11:39:48;;;;;;;8.98;6.10;;;;;;;;;;5067450;28;20606;-74
2023/05/07 11:42:33;;;;;;;6.45;5.85;;;;;;;;;;5061274;28;20032;-68
2023/05/07 11:45:00;;;;;;;9.00;6.50;;;;;;;;;;5069492;28;20020;-73
2023/05/07 11:47:26;;;;;;;6.72;5.95;;;;;;;;;;5061027;28;20087;-69
2023/05/07 11:49:53;;;;;;;8.13;6.22;;;;;;;;;;5068752;28;20095;-70
2023/05/07 11:52:20;;;;;;;7.40;6.60;;;;;;;;;;5057711;28;20016;-69
2023/05/07 11:54:50;;;;;;;7.80;5.47;;;;;;;;;;5061796;28;20099;-70
2023/05/07 11:57:16;;;;;;;6.55;5.93;;;;;;;;;;5062490;28;20174;-68
2023/05/07 11:59:47;;;;;;;8.40;6.03;;;;;;;;;;5063874;28;20100;-72
2023/05/07 12:02:18;;;;;;;7.65;5.90;;;;;;;;;;5064121;28;20071;-70
2023/05/07 12:04:44;;;;;;;6.05;5.45;;;;;;;;;;5066205;28;20120;-68
2023/05/07 12:07:14;;;;;;;6.60;6.00;;;;;;;;;;5067196;28;20548;-69
2023/05/07 12:09:41;;;;;;;10.07;6.10;;;;;;;;;;5069150;28;20525;-69
2023/05/07 12:12:07;;;;;;;6.55;5.90;;;;;;;;;;5067357;28;20112;-69
2023/05/07 12:14:33;;;;;;;8.60;6.78;;;;;;;;;;5065843;28;20055;-70
2023/05/07 12:17:02;;;;;;;8.70;6.40;;;;;;;;;;5064191;28;20047;-69
2023/05/07 12:19:29;;;;;;;6.93;6.22;;;;;;;;;;5065708;28;20016;-74
2023/05/07 12:21:56;;;;;;;7.32;5.97;;;;;;;;;;5060773;28;20104;-69
2023/05/07 12:24:22;;;;;;;6.28;5.55;;;;;;;;;;5069667;28;20068;-73
2023/05/07 12:26:49;;;;;;;9.43;5.72;;;;;;;;;;5064498;28;20097;-70
2023/05/07 12:29:15;;;;;;;8.40;6.25;;;;;;;;;;5070607;28;20031;-69
2023/05/07 12:31:42;;;;;;;6.80;5.93;;;;;;;;;;5064530;28;20074;-74
2023/05/07 12:34:08;;;;;;;6.85;6.18;;;;;;;;;;5063568;28;20122;-69
2023/05/07 12:36:38;;;;;;;6.28;5.63;;;;;;;;;;5067026;28;20024;-71
2023/05/07 12:39:11;;;;;;;6.30;5.70;;;;;;;;;;5063574;28;20065;-69
2023/05/07 12:41:53;;;;;;;6.28;5.70;;;;;;;;;;5064641;28;20033;-69
2023/05/07 12:44:19;;;;;;;7.80;6.35;;;;;;;;;;5063654;28;20086;-73
2023/05/07 12:46:47;;;;;;;6.78;6.18;;;;;;;;;;5062874;28;20040;-71
2023/05/07 12:49:13;;;;;;;12.90;9.32;;;;;;;;;;5054693;28;20125;-72
2023/05/07 12:51:39;;;;;;;9.70;8.45;;;;;;;;;;5064615;28;20549;-70
2023/05/07 12:54:06;;;;;;;14.00;7.45;;;;;;;;;;5056967;28;20071;-75
2023/05/07 12:56:32;;;;;;;9.40;6.50;;;;;;;;;;5065007;28;20225;-73
2023/05/07 12:58:58;;;;;;;6.93;6.32;;;;;;;;;;5063896;28;20077;-69
2023/05/07 13:01:29;;;;;;;7.93;6.10;;;;;;;;;;5062702;28;20024;-69
2023/05/07 13:03:55;;;;;;;8.75;6.40;;;;;;;;;;5068514;28;20045;-69
2023/05/07 13:06:22;;;;;;;8.68;6.07;;;;;;;;;;5067590;28;20104;-69
2023/05/07 13:08:48;;;;;;;7.40;5.75;;;;;;;;;;5064459;28;20509;-69
2023/05/07 13:11:14;;;;;;;7.07;5.82;;;;;;;;;;5068051;28;20115;-69
2023/05/07 13:13:41;;;;;;;7.22;5.95;;;;;;;;;;5063178;28;20114;-68
2023/05/07 13:16:09;;;;;;;9.35;5.70;;;;;;;;;;5064246;28;20029;-69
2023/05/07 13:18:35;;;;;;;10.90;8.82;;;;;;;;;;5061503;28;20115;-69
2023/05/07 13:21:01;;;;;;;10.95;8.15;;;;;;;;;;5065859;28;20111;-69
2023/05/07 13:23:28;;;;;;;11.27;7.60;;;;;;;;;;5061301;28;20016;-69
2023/05/07 13:25:55;;;;;;;8.00;6.53;;;;;;;;;;5069404;28;20543;-69
2023/05/07 13:28:22;;;;;;;6.88;6.03;;;;;;;;;;5069329;28;20031;-69
2023/05/07 13:30:48;;;;;;;6.75;6.05;;;;;;;;;;5068820;28;20107;-68
2023/05/07 13:33:15;;;;;;;11.80;7.75;;;;;;;;;;5067904;28;20028;-69
2023/05/07 13:35:42;;;;;;;9.82;7.38;;;;;;;;;;5066935;28;20619;-69
2023/05/07 13:38:08;;;;;;;9.23;7.38;;;;;;;;;;5066720;28;20029;-69
2023/05/07 13:40:34;;;;;;;8.55;6.85;;;;;;;;;;5067587;28;20016;-69
2023/05/07 13:43:03;;;;;;;13.40;10.15;;;;;;;;;;5063653;28;20029;-69
2023/05/07 13:45:30;;;;;;;9.40;7.18;;;;;;;;;;5066868;28;20615;-69
2023/05/07 13:47:57;;;;;;;13.07;9.85;;;;;;;;;;5065626;28;20033;-68
2023/05/07 13:50:23;;;;;;;22.20;14.25;;;;;;;;;;5061764;28;20028;-69
2023/05/07 13:52:52;;;;;;;16.65;11.40;;;;;;;;;;5061981;28;20031;-70
2023/05/07 13:55:19;;;;;;;12.15;9.43;;;;;;;;;;5063838;28;20642;-68
2023/05/07 13:57:45;;;;;;;15.98;10.95;;;;;;;;;;5058835;28;20488;-68
2023/05/07 14:00:12;;;;;;;8.55;7.10;;;;;;;;;;5062576;28;20020;-69
2023/05/07 14:02:38;;;;;;;6.60;5.70;;;;;;;;;;5052227;28;20113;-69
2023/05/07 14:05:05;;;;;;;10.35;6.50;;;;;;;;;;5065160;28;20472;-69
2023/05/07 14:07:33;;;;;;;10.20;6.63;;;;;;;;;;5058496;28;20394;-69
2023/05/07 14:09:59;;;;;;;10.40;8.00;;;;;;;;;;5061416;28;20028;-69
2023/05/07 14:12:25;;;;;;;13.70;10.10;;;;;;;;;;5060432;28;20036;-68
2023/05/07 14:14:52;;;;;;;8.85;7.95;;;;;;;;;;5065535;28;20020;-68
2023/05/07 14:17:18;;;;;;;13.90;7.20;;;;;;;;;;5060616;28;20024;-68
2023/05/07 14:19:44;;;;;;;18.02;11.30;;;;;;;;;;5060556;28;20443;-74
2023/05/07 14:22:11;;;;;;;14.38;9.70;;;;;;;;;;5060273;28;20024;-76
2023/05/07 14:24:38;;;;;;;10.95;9.25;;;;;;;;;;5061714;28;20044;-75
2023/05/07 14:27:05;;;;;;;9.68;7.28;;;;;;;;;;5061379;28;20073;-76
2023/05/07 14:29:31;;;;;;;10.82;8.45;;;;;;;;;;5062761;28;20040;-75
2023/05/07 14:31:58;;;;;;;9.30;7.82;;;;;;;;;;5058412;28;20028;-75
2023/05/07 14:34:24;;;;;;;10.57;7.90;;;;;;;;;;5063716;28;20029;-76
2023/05/07 14:36:51;;;;;;;8.05;7.35;;;;;;;;;;5062185;28;20090;-76
2023/05/07 14:39:17;;;;;;;8.85;7.03;;;;;;;;;;5063500;28;20055;-76